sensor_id;sensor_type;location;lat;lon;timestamp;P1;durP1;ratioP1;P2;durP2;ratioP2
69417;SDS011;56610;48.872;2.400;2023-05-18T00:00:12;3.38;;;2.13;;
69417;SDS011;56610;48.872;2.400;2023-05-18T00:02:40;3.80;;;2.40;;
69417;SDS011;56610;48.872;2.400;2023-05-18T00:05:06;3.58;;;2.03;;
69417;SDS011;56610;48.872;2.400;2023-05-18T00:07:34;3.92;;;1.83;;
69417;SDS011;56610;48.872;2.400;2023-05-18T00:10:00;4.65;;;2.22;;
69417;SDS011;56610;48.872;2.400;2023-05-18T00:12:25;3.92;;;1.92;;
69417;SDS011;56610;48.872;2.400;2023-05-18T00:14:51;5.60;;;2.25;;
69417;SDS011;56610;48.872;2.400;2023-05-18T00:17:17;5.13;;;2.10;;
69417;SDS011;56610;48.872;2.400;2023-05-18T00:19:44;6.22;;;2.30;;
69417;SDS011;56610;48.872;2.400;2023-05-18T00:22:10;4.78;;;1.92;;
69417;SDS011;56610;48.872;2.400;2023-05-18T00:24:41;5.43;;;2.30;;
69417;SDS011;56610;48.872;2.400;2023-05-18T00:27:07;3.67;;;1.70;;
69417;SDS011;56610;48.872;2.400;2023-05-18T00:29:33;4.38;;;2.10;;
69417;SDS011;56610;48.872;2.400;2023-05-18T00:31:59;5.03;;;2.15;;
69417;SDS011;56610;48.872;2.400;2023-05-18T00:34:24;4.45;;;2.22;;
69417;SDS011;56610;48.872;2.400;2023-05-18T00:36:50;4.38;;;2.25;;
69417;SDS011;56610;48.872;2.400;2023-05-18T00:39:15;5.20;;;2.00;;
69417;SDS011;56610;48.872;2.400;2023-05-18T00:41:41;5.35;;;2.60;;
69417;SDS011;56610;48.872;2.400;2023-05-18T00:44:06;5.13;;;2.05;;
69417;SDS011;56610;48.872;2.400;2023-05-18T00:46:32;4.57;;;2.00;;
69417;SDS011;56610;48.872;2.400;2023-05-18T00:48:58;4.00;;;2.00;;
69417;SDS011;56610;48.872;2.400;2023-05-18T00:51:25;3.45;;;2.00;;
69417;SDS011;56610;48.872;2.400;2023-05-18T00:53:52;4.07;;;2.13;;
69417;SDS011;56610;48.872;2.400;2023-05-18T00:56:19;4.60;;;2.13;;
69417;SDS011;56610;48.872;2.400;2023-05-18T00:59:06;4.07;;;2.00;;
69417;SDS011;56610;48.872;2.400;2023-05-18T01:01:33;5.10;;;1.98;;
69417;SDS011;56610;48.872;2.400;2023-05-18T01:04:00;7.45;;;1.70;;
69417;SDS011;56610;48.872;2.400;2023-05-18T01:06:27;3.85;;;1.75;;
69417;SDS011;56610;48.872;2.400;2023-05-18T01:08:57;3.70;;;1.83;;
69417;SDS011;56610;48.872;2.400;2023-05-18T01:14:12;4.63;;;1.98;;
69417;SDS011;56610;48.872;2.400;2023-05-18T01:17:00;5.72;;;2.10;;
69417;SDS011;56610;48.872;2.400;2023-05-18T01:22:11;5.28;;;2.50;;
69417;SDS011;56610;48.872;2.400;2023-05-18T01:27:07;4.85;;;1.90;;
69417;SDS011;56610;48.872;2.400;2023-05-18T01:29:33;5.65;;;2.40;;
69417;SDS011;56610;48.872;2.400;2023-05-18T01:31:59;4.63;;;1.92;;
69417;SDS011;56610;48.872;2.400;2023-05-18T01:34:25;4.47;;;2.00;;
69417;SDS011;56610;48.872;2.400;2023-05-18T01:36:51;5.30;;;2.15;;
69417;SDS011;56610;48.872;2.400;2023-05-18T01:39:16;5.75;;;2.00;;
69417;SDS011;56610;48.872;2.400;2023-05-18T01:42:05;4.95;;;2.10;;
69417;SDS011;56610;48.872;2.400;2023-05-18T01:44:50;6.70;;;2.40;;
69417;SDS011;56610;48.872;2.400;2023-05-18T01:47:21;3.90;;;2.08;;
69417;SDS011;56610;48.872;2.400;2023-05-18T01:50:05;5.78;;;2.22;;
69417;SDS011;56610;48.872;2.400;2023-05-18T01:52:53;5.43;;;1.98;;
69417;SDS011;56610;48.872;2.400;2023-05-18T01:55:24;4.95;;;2.15;;
69417;SDS011;56610;48.872;2.400;2023-05-18T01:57:53;4.53;;;2.10;;
69417;SDS011;56610;48.872;2.400;2023-05-18T02:00:21;5.03;;;2.20;;
69417;SDS011;56610;48.872;2.400;2023-05-18T02:02:48;5.40;;;2.30;;
69417;SDS011;56610;48.872;2.400;2023-05-18T02:05:14;5.25;;;2.40;;
69417;SDS011;56610;48.872;2.400;2023-05-18T02:07:40;5.30;;;2.22;;
69417;SDS011;56610;48.872;2.400;2023-05-18T02:10:08;4.35;;;2.20;;
69417;SDS011;56610;48.872;2.400;2023-05-18T02:12:34;5.78;;;2.20;;
69417;SDS011;56610;48.872;2.400;2023-05-18T02:14:59;4.03;;;1.88;;
69417;SDS011;56610;48.872;2.400;2023-05-18T02:17:29;7.03;;;2.58;;
69417;SDS011;56610;48.872;2.400;2023-05-18T02:19:58;4.32;;;2.45;;
69417;SDS011;56610;48.872;2.400;2023-05-18T02:22:23;6.07;;;2.42;;
69417;SDS011;56610;48.872;2.400;2023-05-18T02:24:49;7.32;;;2.30;;
69417;SDS011;56610;48.872;2.400;2023-05-18T02:27:15;5.85;;;2.20;;
69417;SDS011;56610;48.872;2.400;2023-05-18T02:29:41;7.32;;;3.00;;
69417;SDS011;56610;48.872;2.400;2023-05-18T02:32:07;5.85;;;3.10;;
69417;SDS011;56610;48.872;2.400;2023-05-18T02:34:32;7.75;;;2.83;;
69417;SDS011;56610;48.872;2.400;2023-05-18T02:36:59;5.40;;;2.75;;
69417;SDS011;56610;48.872;2.400;2023-05-18T02:39:27;6.95;;;2.85;;
69417;SDS011;56610;48.872;2.400;2023-05-18T02:41:53;7.72;;;3.05;;
69417;SDS011;56610;48.872;2.400;2023-05-18T02:44:19;7.82;;;3.40;;
69417;SDS011;56610;48.872;2.400;2023-05-18T02:46:45;4.95;;;2.50;;
69417;SDS011;56610;48.872;2.400;2023-05-18T02:49:11;6.47;;;2.70;;
69417;SDS011;56610;48.872;2.400;2023-05-18T02:51:36;5.63;;;3.10;;
69417;SDS011;56610;48.872;2.400;2023-05-18T02:54:02;7.57;;;3.00;;
69417;SDS011;56610;48.872;2.400;2023-05-18T02:56:28;5.40;;;2.70;;
69417;SDS011;56610;48.872;2.400;2023-05-18T02:58:53;5.15;;;2.50;;
69417;SDS011;56610;48.872;2.400;2023-05-18T03:01:22;5.72;;;2.80;;
69417;SDS011;56610;48.872;2.400;2023-05-18T03:03:51;5.32;;;3.00;;
69417;SDS011;56610;48.872;2.400;2023-05-18T03:06:18;5.47;;;2.75;;
69417;SDS011;56610;48.872;2.400;2023-05-18T03:08:48;6.68;;;2.92;;
69417;SDS011;56610;48.872;2.400;2023-05-18T03:11:18;5.32;;;2.92;;
69417;SDS011;56610;48.872;2.400;2023-05-18T03:13:45;4.90;;;2.60;;
69417;SDS011;56610;48.872;2.400;2023-05-18T03:16:11;7.00;;;3.13;;
69417;SDS011;56610;48.872;2.400;2023-05-18T03:18:37;4.82;;;2.90;;
69417;SDS011;56610;48.872;2.400;2023-05-18T03:21:03;5.85;;;2.80;;
69417;SDS011;56610;48.872;2.400;2023-05-18T03:23:29;5.63;;;3.15;;
69417;SDS011;56610;48.872;2.400;2023-05-18T03:25:54;6.35;;;3.05;;
69417;SDS011;56610;48.872;2.400;2023-05-18T03:28:20;6.38;;;3.03;;
69417;SDS011;56610;48.872;2.400;2023-05-18T03:30:46;5.93;;;3.10;;
69417;SDS011;56610;48.872;2.400;2023-05-18T03:33:12;7.13;;;3.20;;
69417;SDS011;56610;48.872;2.400;2023-05-18T03:35:38;6.85;;;3.45;;
69417;SDS011;56610;48.872;2.400;2023-05-18T03:38:04;6.97;;;3.22;;
69417;SDS011;56610;48.872;2.400;2023-05-18T03:40:30;6.60;;;3.30;;
69417;SDS011;56610;48.872;2.400;2023-05-18T03:42:56;6.72;;;3.40;;
69417;SDS011;56610;48.872;2.400;2023-05-18T03:45:21;10.07;;;3.78;;
69417;SDS011;56610;48.872;2.400;2023-05-18T03:47:47;5.53;;;3.30;;
69417;SDS011;56610;48.872;2.400;2023-05-18T03:50:13;8.18;;;3.45;;
69417;SDS011;56610;48.872;2.400;2023-05-18T03:52:38;6.38;;;3.50;;
69417;SDS011;56610;48.872;2.400;2023-05-18T03:55:05;7.00;;;3.60;;
69417;SDS011;56610;48.872;2.400;2023-05-18T03:57:31;6.35;;;3.70;;
69417;SDS011;56610;48.872;2.400;2023-05-18T03:59:57;5.00;;;3.38;;
69417;SDS011;56610;48.872;2.400;2023-05-18T04:02:23;9.45;;;3.88;;
69417;SDS011;56610;48.872;2.400;2023-05-18T04:05:09;7.70;;;3.97;;
69417;SDS011;56610;48.872;2.400;2023-05-18T04:07:35;8.63;;;3.78;;
69417;SDS011;56610;48.872;2.400;2023-05-18T04:10:07;7.72;;;4.03;;
69417;SDS011;56610;48.872;2.400;2023-05-18T04:12:34;6.60;;;3.70;;
69417;SDS011;56610;48.872;2.400;2023-05-18T04:15:00;5.68;;;3.20;;
69417;SDS011;56610;48.872;2.400;2023-05-18T04:17:26;7.85;;;3.75;;
69417;SDS011;56610;48.872;2.400;2023-05-18T04:19:51;9.98;;;4.05;;
69417;SDS011;56610;48.872;2.400;2023-05-18T04:22:17;8.07;;;3.80;;
69417;SDS011;56610;48.872;2.400;2023-05-18T04:24:42;8.38;;;3.80;;
69417;SDS011;56610;48.872;2.400;2023-05-18T04:27:11;7.75;;;3.90;;
69417;SDS011;56610;48.872;2.400;2023-05-18T04:29:36;10.18;;;4.57;;
69417;SDS011;56610;48.872;2.400;2023-05-18T04:32:03;7.35;;;3.40;;
69417;SDS011;56610;48.872;2.400;2023-05-18T04:34:31;7.25;;;4.00;;
69417;SDS011;56610;48.872;2.400;2023-05-18T04:36:59;7.32;;;4.10;;
69417;SDS011;56610;48.872;2.400;2023-05-18T04:39:25;10.32;;;4.10;;
69417;SDS011;56610;48.872;2.400;2023-05-18T04:41:51;7.43;;;3.70;;
69417;SDS011;56610;48.872;2.400;2023-05-18T04:44:26;5.72;;;3.75;;
69417;SDS011;56610;48.872;2.400;2023-05-18T04:46:53;6.80;;;4.15;;
69417;SDS011;56610;48.872;2.400;2023-05-18T04:49:19;9.75;;;4.43;;
69417;SDS011;56610;48.872;2.400;2023-05-18T04:51:50;8.50;;;4.00;;
69417;SDS011;56610;48.872;2.400;2023-05-18T04:54:26;8.23;;;4.70;;
69417;SDS011;56610;48.872;2.400;2023-05-18T04:56:55;7.55;;;3.90;;
69417;SDS011;56610;48.872;2.400;2023-05-18T04:59:21;9.50;;;4.45;;
69417;SDS011;56610;48.872;2.400;2023-05-18T05:01:50;8.02;;;3.88;;
69417;SDS011;56610;48.872;2.400;2023-05-18T05:04:17;8.18;;;3.90;;
69417;SDS011;56610;48.872;2.400;2023-05-18T05:06:43;7.22;;;4.20;;
69417;SDS011;56610;48.872;2.400;2023-05-18T05:09:09;10.20;;;4.53;;
69417;SDS011;56610;48.872;2.400;2023-05-18T05:11:38;6.22;;;4.45;;
69417;SDS011;56610;48.872;2.400;2023-05-18T05:14:03;7.53;;;4.18;;
69417;SDS011;56610;48.872;2.400;2023-05-18T05:16:29;6.88;;;4.10;;
69417;SDS011;56610;48.872;2.400;2023-05-18T05:18:54;8.27;;;4.32;;
69417;SDS011;56610;48.872;2.400;2023-05-18T05:21:20;8.82;;;4.65;;
69417;SDS011;56610;48.872;2.400;2023-05-18T05:23:46;9.30;;;4.65;;
69417;SDS011;56610;48.872;2.400;2023-05-18T05:26:11;6.72;;;4.07;;
69417;SDS011;56610;48.872;2.400;2023-05-18T05:28:37;8.93;;;4.53;;
69417;SDS011;56610;48.872;2.400;2023-05-18T05:31:03;7.10;;;4.38;;
69417;SDS011;56610;48.872;2.400;2023-05-18T05:33:28;9.80;;;4.40;;
69417;SDS011;56610;48.872;2.400;2023-05-18T05:35:54;6.90;;;4.53;;
69417;SDS011;56610;48.872;2.400;2023-05-18T05:38:20;9.15;;;4.53;;
69417;SDS011;56610;48.872;2.400;2023-05-18T05:40:45;8.73;;;4.50;;
69417;SDS011;56610;48.872;2.400;2023-05-18T05:43:11;7.90;;;4.20;;
69417;SDS011;56610;48.872;2.400;2023-05-18T05:45:36;7.65;;;4.47;;
69417;SDS011;56610;48.872;2.400;2023-05-18T05:48:03;10.30;;;4.93;;
69417;SDS011;56610;48.872;2.400;2023-05-18T05:50:28;9.30;;;5.35;;
69417;SDS011;56610;48.872;2.400;2023-05-18T05:52:54;9.18;;;4.60;;
69417;SDS011;56610;48.872;2.400;2023-05-18T05:55:19;7.88;;;4.47;;
69417;SDS011;56610;48.872;2.400;2023-05-18T05:57:46;7.43;;;4.88;;
69417;SDS011;56610;48.872;2.400;2023-05-18T06:00:12;10.80;;;4.90;;
69417;SDS011;56610;48.872;2.400;2023-05-18T06:02:38;8.13;;;4.15;;
69417;SDS011;56610;48.872;2.400;2023-05-18T06:05:07;9.70;;;4.88;;
69417;SDS011;56610;48.872;2.400;2023-05-18T06:07:33;6.68;;;4.50;;
69417;SDS011;56610;48.872;2.400;2023-05-18T06:09:59;10.02;;;4.60;;
69417;SDS011;56610;48.872;2.400;2023-05-18T06:12:25;9.75;;;4.97;;
69417;SDS011;56610;48.872;2.400;2023-05-18T06:14:51;8.93;;;4.70;;
69417;SDS011;56610;48.872;2.400;2023-05-18T06:17:21;9.20;;;5.32;;
69417;SDS011;56610;48.872;2.400;2023-05-18T06:19:50;8.00;;;4.10;;
69417;SDS011;56610;48.872;2.400;2023-05-18T06:22:15;8.35;;;4.28;;
69417;SDS011;56610;48.872;2.400;2023-05-18T06:24:41;9.15;;;4.63;;
69417;SDS011;56610;48.872;2.400;2023-05-18T06:27:07;9.93;;;4.63;;
69417;SDS011;56610;48.872;2.400;2023-05-18T06:29:32;10.10;;;5.22;;
69417;SDS011;56610;48.872;2.400;2023-05-18T06:31:58;8.10;;;4.50;;
69417;SDS011;56610;48.872;2.400;2023-05-18T06:34:24;8.60;;;4.93;;
69417;SDS011;56610;48.872;2.400;2023-05-18T06:36:50;6.85;;;4.43;;
69417;SDS011;56610;48.872;2.400;2023-05-18T06:39:15;8.02;;;4.53;;
69417;SDS011;56610;48.872;2.400;2023-05-18T06:41:41;7.95;;;4.38;;
69417;SDS011;56610;48.872;2.400;2023-05-18T06:44:08;9.05;;;4.93;;
69417;SDS011;56610;48.872;2.400;2023-05-18T06:46:34;9.95;;;5.10;;
69417;SDS011;56610;48.872;2.400;2023-05-18T06:49:00;8.55;;;4.43;;
69417;SDS011;56610;48.872;2.400;2023-05-18T06:51:25;10.32;;;5.13;;
69417;SDS011;56610;48.872;2.400;2023-05-18T06:53:51;9.18;;;4.25;;
69417;SDS011;56610;48.872;2.400;2023-05-18T06:56:16;6.53;;;4.72;;
69417;SDS011;56610;48.872;2.400;2023-05-18T06:58:42;9.20;;;4.40;;
69417;SDS011;56610;48.872;2.400;2023-05-18T07:01:08;8.95;;;4.65;;
69417;SDS011;56610;48.872;2.400;2023-05-18T07:03:34;9.02;;;4.10;;
69417;SDS011;56610;48.872;2.400;2023-05-18T07:06:01;7.88;;;4.50;;
69417;SDS011;56610;48.872;2.400;2023-05-18T07:08:28;6.80;;;4.03;;
69417;SDS011;56610;48.872;2.400;2023-05-18T07:10:54;8.82;;;4.70;;
69417;SDS011;56610;48.872;2.400;2023-05-18T07:13:21;10.73;;;4.63;;
69417;SDS011;56610;48.872;2.400;2023-05-18T07:15:48;7.95;;;4.15;;
69417;SDS011;56610;48.872;2.400;2023-05-18T07:18:13;7.93;;;4.45;;
69417;SDS011;56610;48.872;2.400;2023-05-18T07:20:39;8.50;;;4.90;;
69417;SDS011;56610;48.872;2.400;2023-05-18T07:23:04;10.13;;;5.03;;
69417;SDS011;56610;48.872;2.400;2023-05-18T07:25:30;8.55;;;4.30;;
69417;SDS011;56610;48.872;2.400;2023-05-18T07:27:56;8.35;;;4.70;;
69417;SDS011;56610;48.872;2.400;2023-05-18T07:30:21;10.43;;;4.93;;
69417;SDS011;56610;48.872;2.400;2023-05-18T07:32:47;10.57;;;4.97;;
69417;SDS011;56610;48.872;2.400;2023-05-18T07:35:13;8.18;;;4.68;;
69417;SDS011;56610;48.872;2.400;2023-05-18T07:37:40;8.20;;;4.53;;
69417;SDS011;56610;48.872;2.400;2023-05-18T07:40:06;11.88;;;4.50;;
69417;SDS011;56610;48.872;2.400;2023-05-18T07:42:34;8.65;;;4.63;;
69417;SDS011;56610;48.872;2.400;2023-05-18T07:45:00;11.80;;;4.85;;
69417;SDS011;56610;48.872;2.400;2023-05-18T07:47:25;10.18;;;4.50;;
69417;SDS011;56610;48.872;2.400;2023-05-18T07:49:51;10.65;;;4.72;;
69417;SDS011;56610;48.872;2.400;2023-05-18T07:52:16;8.57;;;4.70;;
69417;SDS011;56610;48.872;2.400;2023-05-18T07:54:42;9.02;;;4.57;;
69417;SDS011;56610;48.872;2.400;2023-05-18T07:57:08;6.95;;;4.00;;
69417;SDS011;56610;48.872;2.400;2023-05-18T07:59:33;11.35;;;4.90;;
69417;SDS011;56610;48.872;2.400;2023-05-18T08:01:59;10.05;;;4.85;;
69417;SDS011;56610;48.872;2.400;2023-05-18T08:04:25;8.38;;;4.22;;
69417;SDS011;56610;48.872;2.400;2023-05-18T08:06:52;8.20;;;4.45;;
69417;SDS011;56610;48.872;2.400;2023-05-18T08:09:19;7.75;;;4.38;;
69417;SDS011;56610;48.872;2.400;2023-05-18T08:11:46;10.68;;;4.43;;
69417;SDS011;56610;48.872;2.400;2023-05-18T08:14:12;11.38;;;5.03;;
69417;SDS011;56610;48.872;2.400;2023-05-18T08:16:37;10.57;;;4.43;;
69417;SDS011;56610;48.872;2.400;2023-05-18T08:19:03;12.57;;;4.10;;
69417;SDS011;56610;48.872;2.400;2023-05-18T08:21:29;9.27;;;4.30;;
69417;SDS011;56610;48.872;2.400;2023-05-18T08:23:55;9.45;;;4.57;;
69417;SDS011;56610;48.872;2.400;2023-05-18T08:26:20;10.00;;;4.18;;
69417;SDS011;56610;48.872;2.400;2023-05-18T08:28:46;10.40;;;4.05;;
69417;SDS011;56610;48.872;2.400;2023-05-18T08:31:13;10.35;;;4.30;;
69417;SDS011;56610;48.872;2.400;2023-05-18T08:33:39;8.77;;;3.50;;
69417;SDS011;56610;48.872;2.400;2023-05-18T08:36:06;9.50;;;3.88;;
69417;SDS011;56610;48.872;2.400;2023-05-18T08:38:32;9.65;;;3.90;;
69417;SDS011;56610;48.872;2.400;2023-05-18T08:41:18;7.65;;;4.15;;
69417;SDS011;56610;48.872;2.400;2023-05-18T08:43:47;8.75;;;3.67;;
69417;SDS011;56610;48.872;2.400;2023-05-18T08:46:24;8.95;;;3.63;;
69417;SDS011;56610;48.872;2.400;2023-05-18T08:51:44;9.75;;;4.00;;
69417;SDS011;56610;48.872;2.400;2023-05-18T08:54:14;10.18;;;4.18;;
69417;SDS011;56610;48.872;2.400;2023-05-18T08:56:44;9.90;;;3.80;;
69417;SDS011;56610;48.872;2.400;2023-05-18T08:59:11;10.05;;;3.85;;
69417;SDS011;56610;48.872;2.400;2023-05-18T09:01:40;9.18;;;3.92;;
69417;SDS011;56610;48.872;2.400;2023-05-18T09:04:06;8.77;;;3.80;;
69417;SDS011;56610;48.872;2.400;2023-05-18T09:06:33;9.95;;;4.03;;
69417;SDS011;56610;48.872;2.400;2023-05-18T09:09:00;9.40;;;4.28;;
69417;SDS011;56610;48.872;2.400;2023-05-18T09:11:28;8.63;;;4.22;;
69417;SDS011;56610;48.872;2.400;2023-05-18T09:13:55;10.77;;;4.03;;
69417;SDS011;56610;48.872;2.400;2023-05-18T09:16:23;8.67;;;3.87;;
69417;SDS011;56610;48.872;2.400;2023-05-18T09:18:48;9.38;;;4.25;;
69417;SDS011;56610;48.872;2.400;2023-05-18T09:21:14;6.38;;;3.75;;
69417;SDS011;56610;48.872;2.400;2023-05-18T09:23:40;9.82;;;3.88;;
69417;SDS011;56610;48.872;2.400;2023-05-18T09:26:07;9.88;;;4.05;;
69417;SDS011;56610;48.872;2.400;2023-05-18T09:28:38;11.07;;;4.07;;
69417;SDS011;56610;48.872;2.400;2023-05-18T09:31:07;10.30;;;4.00;;
69417;SDS011;56610;48.872;2.400;2023-05-18T09:33:36;9.05;;;3.80;;
69417;SDS011;56610;48.872;2.400;2023-05-18T09:36:04;9.35;;;4.35;;
69417;SDS011;56610;48.872;2.400;2023-05-18T09:38:31;6.95;;;3.33;;
69417;SDS011;56610;48.872;2.400;2023-05-18T09:41:02;8.75;;;3.75;;
69417;SDS011;56610;48.872;2.400;2023-05-18T09:43:28;9.02;;;3.30;;
69417;SDS011;56610;48.872;2.400;2023-05-18T09:45:53;9.10;;;4.03;;
69417;SDS011;56610;48.872;2.400;2023-05-18T09:48:19;9.52;;;3.80;;
69417;SDS011;56610;48.872;2.400;2023-05-18T09:50:46;8.73;;;3.55;;
69417;SDS011;56610;48.872;2.400;2023-05-18T09:53:14;9.93;;;3.65;;
69417;SDS011;56610;48.872;2.400;2023-05-18T09:55:46;12.18;;;4.13;;
69417;SDS011;56610;48.872;2.400;2023-05-18T09:58:13;8.90;;;3.95;;
69417;SDS011;56610;48.872;2.400;2023-05-18T10:00:40;9.77;;;4.18;;
69417;SDS011;56610;48.872;2.400;2023-05-18T10:03:20;12.07;;;3.80;;
69417;SDS011;56610;48.872;2.400;2023-05-18T10:05:49;9.68;;;4.03;;
69417;SDS011;56610;48.872;2.400;2023-05-18T10:08:16;9.02;;;3.78;;
69417;SDS011;56610;48.872;2.400;2023-05-18T10:10:46;7.38;;;3.85;;
69417;SDS011;56610;48.872;2.400;2023-05-18T10:13:14;9.43;;;3.83;;
69417;SDS011;56610;48.872;2.400;2023-05-18T10:15:47;8.65;;;4.82;;
69417;SDS011;56610;48.872;2.400;2023-05-18T10:18:15;9.18;;;3.97;;
69417;SDS011;56610;48.872;2.400;2023-05-18T10:20:47;8.85;;;4.30;;
69417;SDS011;56610;48.872;2.400;2023-05-18T10:23:13;9.10;;;4.15;;
69417;SDS011;56610;48.872;2.400;2023-05-18T10:25:38;7.90;;;3.47;;
69417;SDS011;56610;48.872;2.400;2023-05-18T10:28:07;8.00;;;3.67;;
69417;SDS011;56610;48.872;2.400;2023-05-18T10:30:34;9.03;;;3.80;;
69417;SDS011;56610;48.872;2.400;2023-05-18T10:33:01;8.20;;;3.80;;
69417;SDS011;56610;48.872;2.400;2023-05-18T10:35:28;8.82;;;3.55;;
69417;SDS011;56610;48.872;2.400;2023-05-18T10:37:54;8.50;;;3.63;;
69417;SDS011;56610;48.872;2.400;2023-05-18T10:40:22;10.05;;;4.32;;
69417;SDS011;56610;48.872;2.400;2023-05-18T10:42:49;8.60;;;3.50;;
69417;SDS011;56610;48.872;2.400;2023-05-18T10:45:17;8.82;;;3.50;;
69417;SDS011;56610;48.872;2.400;2023-05-18T10:47:43;9.07;;;3.22;;
69417;SDS011;56610;48.872;2.400;2023-05-18T10:50:09;8.93;;;3.50;;
69417;SDS011;56610;48.872;2.400;2023-05-18T10:52:36;7.47;;;3.75;;
69417;SDS011;56610;48.872;2.400;2023-05-18T10:55:02;8.93;;;3.67;;
69417;SDS011;56610;48.872;2.400;2023-05-18T10:57:38;10.93;;;4.20;;
69417;SDS011;56610;48.872;2.400;2023-05-18T11:00:08;8.10;;;3.38;;
69417;SDS011;56610;48.872;2.400;2023-05-18T11:02:35;6.88;;;3.13;;
69417;SDS011;56610;48.872;2.400;2023-05-18T11:05:04;8.25;;;3.72;;
69417;SDS011;56610;48.872;2.400;2023-05-18T11:07:30;11.07;;;3.88;;
69417;SDS011;56610;48.872;2.400;2023-05-18T11:09:58;7.50;;;3.25;;
69417;SDS011;56610;48.872;2.400;2023-05-18T11:14:52;9.88;;;3.90;;
69417;SDS011;56610;48.872;2.400;2023-05-18T11:17:22;5.93;;;3.25;;
69417;SDS011;56610;48.872;2.400;2023-05-18T11:23:04;9.75;;;3.40;;
69417;SDS011;56610;48.872;2.400;2023-05-18T11:41:37;6.32;;;3.42;;
69417;SDS011;56610;48.872;2.400;2023-05-18T11:46:39;6.63;;;3.58;;
69417;SDS011;56610;48.872;2.400;2023-05-18T11:49:35;5.95;;;3.10;;
69417;SDS011;56610;48.872;2.400;2023-05-18T11:57:06;7.70;;;3.63;;
69417;SDS011;56610;48.872;2.400;2023-05-18T11:59:35;6.82;;;3.20;;
69417;SDS011;56610;48.872;2.400;2023-05-18T12:02:03;8.23;;;3.47;;
69417;SDS011;56610;48.872;2.400;2023-05-18T12:04:29;8.73;;;3.53;;
69417;SDS011;56610;48.872;2.400;2023-05-18T12:06:57;6.95;;;3.30;;
69417;SDS011;56610;48.872;2.400;2023-05-18T12:09:24;6.20;;;2.92;;
69417;SDS011;56610;48.872;2.400;2023-05-18T12:11:50;6.90;;;3.30;;
69417;SDS011;56610;48.872;2.400;2023-05-18T12:14:18;6.30;;;2.90;;
69417;SDS011;56610;48.872;2.400;2023-05-18T12:16:46;7.95;;;3.33;;
69417;SDS011;56610;48.872;2.400;2023-05-18T12:19:12;8.05;;;3.58;;
69417;SDS011;56610;48.872;2.400;2023-05-18T12:21:38;7.20;;;2.72;;
69417;SDS011;56610;48.872;2.400;2023-05-18T12:24:04;7.43;;;3.25;;
69417;SDS011;56610;48.872;2.400;2023-05-18T12:26:30;5.90;;;2.83;;
69417;SDS011;56610;48.872;2.400;2023-05-18T12:28:58;6.65;;;3.00;;
69417;SDS011;56610;48.872;2.400;2023-05-18T12:33:50;8.68;;;3.45;;
69417;SDS011;56610;48.872;2.400;2023-05-18T12:38:46;7.72;;;3.10;;
69417;SDS011;56610;48.872;2.400;2023-05-18T12:41:20;6.60;;;3.13;;
69417;SDS011;56610;48.872;2.400;2023-05-18T12:43:47;6.80;;;3.20;;
69417;SDS011;56610;48.872;2.400;2023-05-18T12:46:12;7.38;;;3.50;;
69417;SDS011;56610;48.872;2.400;2023-05-18T12:48:41;9.95;;;3.78;;
69417;SDS011;56610;48.872;2.400;2023-05-18T12:51:17;6.70;;;3.45;;
69417;SDS011;56610;48.872;2.400;2023-05-18T12:53:43;8.68;;;3.75;;
69417;SDS011;56610;48.872;2.400;2023-05-18T12:56:09;7.50;;;3.35;;
69417;SDS011;56610;48.872;2.400;2023-05-18T12:58:36;8.03;;;3.03;;
69417;SDS011;56610;48.872;2.400;2023-05-18T13:01:07;9.93;;;3.70;;
69417;SDS011;56610;48.872;2.400;2023-05-18T13:03:34;7.10;;;3.30;;
69417;SDS011;56610;48.872;2.400;2023-05-18T13:06:03;8.32;;;3.72;;
69417;SDS011;56610;48.872;2.400;2023-05-18T13:08:30;7.72;;;3.30;;
69417;SDS011;56610;48.872;2.400;2023-05-18T13:11:03;9.73;;;4.10;;
69417;SDS011;56610;48.872;2.400;2023-05-18T13:13:32;6.40;;;3.10;;
69417;SDS011;56610;48.872;2.400;2023-05-18T13:15:58;7.75;;;3.70;;
69417;SDS011;56610;48.872;2.400;2023-05-18T13:18:25;6.80;;;3.33;;
69417;SDS011;56610;48.872;2.400;2023-05-18T13:20:52;6.20;;;3.50;;
69417;SDS011;56610;48.872;2.400;2023-05-18T13:23:21;7.60;;;3.33;;
69417;SDS011;56610;48.872;2.400;2023-05-18T13:25:48;7.07;;;3.28;;
69417;SDS011;56610;48.872;2.400;2023-05-18T13:28:15;5.57;;;3.38;;
69417;SDS011;56610;48.872;2.400;2023-05-18T13:30:43;6.88;;;3.00;;
69417;SDS011;56610;48.872;2.400;2023-05-18T13:33:10;8.48;;;3.75;;
69417;SDS011;56610;48.872;2.400;2023-05-18T13:35:39;7.10;;;2.95;;
69417;SDS011;56610;48.872;2.400;2023-05-18T13:38:06;7.43;;;3.17;;
69417;SDS011;56610;48.872;2.400;2023-05-18T13:40:36;7.60;;;3.70;;
69417;SDS011;56610;48.872;2.400;2023-05-18T13:43:02;8.65;;;3.75;;
69417;SDS011;56610;48.872;2.400;2023-05-18T13:47:55;7.55;;;3.42;;
69417;SDS011;56610;48.872;2.400;2023-05-18T13:50:21;7.15;;;2.92;;
69417;SDS011;56610;48.872;2.400;2023-05-18T13:52:47;6.25;;;3.13;;
69417;SDS011;56610;48.872;2.400;2023-05-18T13:55:13;5.35;;;3.10;;
69417;SDS011;56610;48.872;2.400;2023-05-18T13:57:39;5.80;;;2.95;;
69417;SDS011;56610;48.872;2.400;2023-05-18T14:00:05;5.97;;;2.75;;
69417;SDS011;56610;48.872;2.400;2023-05-18T14:02:37;5.40;;;2.45;;
69417;SDS011;56610;48.872;2.400;2023-05-18T14:05:06;7.22;;;2.88;;
69417;SDS011;56610;48.872;2.400;2023-05-18T14:07:38;5.40;;;2.45;;
69417;SDS011;56610;48.872;2.400;2023-05-18T14:10:05;9.57;;;2.50;;
69417;SDS011;56610;48.872;2.400;2023-05-18T14:12:31;4.82;;;2.47;;
69417;SDS011;56610;48.872;2.400;2023-05-18T14:14:58;9.30;;;2.80;;
69417;SDS011;56610;48.872;2.400;2023-05-18T14:17:24;6.45;;;2.60;;
69417;SDS011;56610;48.872;2.400;2023-05-18T14:19:51;6.50;;;2.42;;
69417;SDS011;56610;48.872;2.400;2023-05-18T14:22:17;6.38;;;2.63;;
69417;SDS011;56610;48.872;2.400;2023-05-18T14:24:42;6.85;;;2.58;;
69417;SDS011;56610;48.872;2.400;2023-05-18T14:27:09;4.97;;;2.80;;
69417;SDS011;56610;48.872;2.400;2023-05-18T14:29:35;7.88;;;3.13;;
69417;SDS011;56610;48.872;2.400;2023-05-18T14:32:00;6.85;;;2.80;;
69417;SDS011;56610;48.872;2.400;2023-05-18T14:34:26;7.65;;;2.58;;
69417;SDS011;56610;48.872;2.400;2023-05-18T14:36:52;5.28;;;2.70;;
69417;SDS011;56610;48.872;2.400;2023-05-18T14:39:17;8.77;;;2.90;;
69417;SDS011;56610;48.872;2.400;2023-05-18T14:41:43;6.93;;;3.97;;
69417;SDS011;56610;48.872;2.400;2023-05-18T14:44:09;7.95;;;4.40;;
69417;SDS011;56610;48.872;2.400;2023-05-18T14:46:35;12.88;;;6.65;;
69417;SDS011;56610;48.872;2.400;2023-05-18T14:49:01;6.65;;;4.28;;
69417;SDS011;56610;48.872;2.400;2023-05-18T14:51:27;5.78;;;3.55;;
69417;SDS011;56610;48.872;2.400;2023-05-18T14:53:52;9.85;;;5.97;;
69417;SDS011;56610;48.872;2.400;2023-05-18T14:56:18;13.15;;;9.25;;
69417;SDS011;56610;48.872;2.400;2023-05-18T14:58:43;6.32;;;3.08;;
69417;SDS011;56610;48.872;2.400;2023-05-18T15:01:09;7.55;;;4.25;;
69417;SDS011;56610;48.872;2.400;2023-05-18T15:03:35;5.65;;;2.80;;
69417;SDS011;56610;48.872;2.400;2023-05-18T15:06:01;7.00;;;2.72;;
69417;SDS011;56610;48.872;2.400;2023-05-18T15:08:26;9.48;;;5.65;;
69417;SDS011;56610;48.872;2.400;2023-05-18T15:10:52;4.68;;;2.58;;
69417;SDS011;56610;48.872;2.400;2023-05-18T15:13:17;4.95;;;2.42;;
69417;SDS011;56610;48.872;2.400;2023-05-18T15:15:43;6.68;;;2.92;;
69417;SDS011;56610;48.872;2.400;2023-05-18T15:18:09;4.45;;;2.33;;
69417;SDS011;56610;48.872;2.400;2023-05-18T15:20:35;5.10;;;2.58;;
69417;SDS011;56610;48.872;2.400;2023-05-18T15:23:01;6.10;;;2.70;;
69417;SDS011;56610;48.872;2.400;2023-05-18T15:25:27;5.18;;;2.72;;
69417;SDS011;56610;48.872;2.400;2023-05-18T15:27:53;6.85;;;2.75;;
69417;SDS011;56610;48.872;2.400;2023-05-18T15:30:19;7.43;;;2.95;;
69417;SDS011;56610;48.872;2.400;2023-05-18T15:32:45;5.03;;;2.22;;